sensor_id;sensor_type;location;lat;lon;timestamp;pressure;altitude;pressure_sealevel;temperature;humidity
59417;BME280;45222;52.458;20.914;2023-02-03T00:01:31;101087.67;;;-0.62;88.09
59417;BME280;45222;52.458;20.914;2023-02-03T00:05:22;101090.52;;;-0.57;87.87
59417;BME280;45222;52.458;20.914;2023-02-03T00:09:07;101082.14;;;-0.56;87.71
59417;BME280;45222;52.458;20.914;2023-02-03T00:12:51;101072.52;;;-0.58;87.53
59417;BME280;45222;52.458;20.914;2023-02-03T00:16:35;101078.61;;;-0.60;87.44
59417;BME280;45222;52.458;20.914;2023-02-03T00:20:19;101080.33;;;-0.63;87.27
59417;BME280;45222;52.458;20.914;2023-02-03T00:24:04;101077.02;;;-0.63;87.29
59417;BME280;45222;52.458;20.914;2023-02-03T00:27:48;101083.09;;;-0.66;87.09
59417;BME280;45222;52.458;20.914;2023-02-03T00:31:32;101080.93;;;-0.74;87.04
59417;BME280;45222;52.458;20.914;2023-02-03T00:35:16;101087.84;;;-0.82;87.03
59417;BME280;45222;52.458;20.914;2023-02-03T00:39:00;101091.78;;;-0.90;86.99
59417;BME280;45222;52.458;20.914;2023-02-03T00:42:45;101098.67;;;-0.99;86.89
59417;BME280;45222;52.458;20.914;2023-02-03T00:46:29;101101.88;;;-1.09;86.70
59417;BME280;45222;52.458;20.914;2023-02-03T00:50:13;101104.55;;;-1.20;86.78
59417;BME280;45222;52.458;20.914;2023-02-03T00:53:57;101107.58;;;-1.29;86.89
59417;BME280;45222;52.458;20.914;2023-02-03T00:57:41;101111.70;;;-1.35;87.04
59417;BME280;45222;52.458;20.914;2023-02-03T01:01:25;101111.55;;;-1.32;87.08
59417;BME280;45222;52.458;20.914;2023-02-03T01:05:10;101110.60;;;-1.25;87.13
59417;BME280;45222;52.458;20.914;2023-02-03T01:08:54;101111.60;;;-1.14;87.09
59417;BME280;45222;52.458;20.914;2023-02-03T01:12:38;101110.29;;;-1.06;85.79
59417;BME280;45222;52.458;20.914;2023-02-03T01:16:23;101113.14;;;-1.01;85.10
59417;BME280;45222;52.458;20.914;2023-02-03T01:20:08;101111.46;;;-0.94;84.62
59417;BME280;45222;52.458;20.914;2023-02-03T01:23:54;101113.96;;;-0.90;83.73
59417;BME280;45222;52.458;20.914;2023-02-03T01:27:39;101114.11;;;-0.91;81.91
59417;BME280;45222;52.458;20.914;2023-02-03T01:31:24;101116.20;;;-0.92;81.72
59417;BME280;45222;52.458;20.914;2023-02-03T01:35:08;101113.08;;;-0.91;81.57
59417;BME280;45222;52.458;20.914;2023-02-03T01:38:52;101113.79;;;-0.90;81.28
59417;BME280;45222;52.458;20.914;2023-02-03T01:42:36;101105.03;;;-0.91;80.83
59417;BME280;45222;52.458;20.914;2023-02-03T01:46:23;101109.75;;;-0.91;81.00
59417;BME280;45222;52.458;20.914;2023-02-03T01:50:10;101103.11;;;-0.92;80.72
59417;BME280;45222;52.458;20.914;2023-02-03T01:53:56;101098.55;;;-0.94;81.15
59417;BME280;45222;52.458;20.914;2023-02-03T01:57:41;101100.64;;;-0.95;81.42
59417;BME280;45222;52.458;20.914;2023-02-03T02:01:27;101100.78;;;-0.98;81.60
59417;BME280;45222;52.458;20.914;2023-02-03T02:05:13;101103.55;;;-0.99;81.88
59417;BME280;45222;52.458;20.914;2023-02-03T02:08:58;101104.61;;;-0.99;81.87
59417;BME280;45222;52.458;20.914;2023-02-03T02:12:43;101098.82;;;-1.01;82.11
59417;BME280;45222;52.458;20.914;2023-02-03T02:16:29;101091.05;;;-1.09;82.14
59417;BME280;45222;52.458;20.914;2023-02-03T02:20:36;101083.46;;;-1.18;82.06
59417;BME280;45222;52.458;20.914;2023-02-03T02:24:40;101080.17;;;-1.30;82.24
59417;BME280;45222;52.458;20.914;2023-02-03T02:32:41;101070.05;;;-1.45;82.70
59417;BME280;45222;52.458;20.914;2023-02-03T02:36:29;101062.66;;;-1.50;82.88
59417;BME280;45222;52.458;20.914;2023-02-03T02:40:18;101052.83;;;-1.56;82.86
59417;BME280;45222;52.458;20.914;2023-02-03T02:44:08;101055.17;;;-1.64;82.79
59417;BME280;45222;52.458;20.914;2023-02-03T02:47:54;101062.21;;;-1.72;82.98
59417;BME280;45222;52.458;20.914;2023-02-03T02:51:39;101062.63;;;-1.81;83.08
59417;BME280;45222;52.458;20.914;2023-02-03T02:55:25;101063.56;;;-1.90;83.15
59417;BME280;45222;52.458;20.914;2023-02-03T02:59:10;101066.05;;;-1.98;83.27
59417;BME280;45222;52.458;20.914;2023-02-03T03:02:55;101058.64;;;-2.04;83.49
59417;BME280;45222;52.458;20.914;2023-02-03T03:06:40;101058.20;;;-2.11;83.51
59417;BME280;45222;52.458;20.914;2023-02-03T03:10:25;101057.93;;;-2.17;83.58
59417;BME280;45222;52.458;20.914;2023-02-03T03:14:12;101064.45;;;-2.24;83.66
59417;BME280;45222;52.458;20.914;2023-02-03T03:17:59;101061.20;;;-2.32;83.80
59417;BME280;45222;52.458;20.914;2023-02-03T03:21:45;101063.38;;;-2.38;83.92
59417;BME280;45222;52.458;20.914;2023-02-03T03:25:33;101066.77;;;-2.43;84.18
59417;BME280;45222;52.458;20.914;2023-02-03T03:29:20;101065.30;;;-2.48;84.27
59417;BME280;45222;52.458;20.914;2023-02-03T03:33:05;101062.77;;;-2.54;84.42
59417;BME280;45222;52.458;20.914;2023-02-03T03:36:52;101060.95;;;-2.59;84.43
59417;BME280;45222;52.458;20.914;2023-02-03T03:40:40;101059.14;;;-2.63;84.70
59417;BME280;45222;52.458;20.914;2023-02-03T03:44:28;101056.27;;;-2.68;84.72
59417;BME280;45222;52.458;20.914;2023-02-03T03:48:13;101049.75;;;-2.73;84.90
59417;BME280;45222;52.458;20.914;2023-02-03T03:52:00;101054.20;;;-2.77;85.25
59417;BME280;45222;52.458;20.914;2023-02-03T03:55:46;101051.35;;;-2.81;85.19
59417;BME280;45222;52.458;20.914;2023-02-03T03:59:32;101050.40;;;-2.85;85.22
59417;BME280;45222;52.458;20.914;2023-02-03T04:03:19;101048.11;;;-2.87;85.65
59417;BME280;45222;52.458;20.914;2023-02-03T04:07:04;101051.91;;;-2.89;85.50
59417;BME280;45222;52.458;20.914;2023-02-03T04:10:48;101049.25;;;-2.91;85.53
59417;BME280;45222;52.458;20.914;2023-02-03T04:14:33;101046.60;;;-2.94;85.78
59417;BME280;45222;52.458;20.914;2023-02-03T04:18:17;101047.13;;;-2.94;85.59
59417;BME280;45222;52.458;20.914;2023-02-03T04:22:01;101050.00;;;-2.89;85.70
59417;BME280;45222;52.458;20.914;2023-02-03T04:25:45;101049.25;;;-2.82;86.02
59417;BME280;45222;52.458;20.914;2023-02-03T04:29:29;101044.89;;;-2.72;86.05
59417;BME280;45222;52.458;20.914;2023-02-03T04:33:13;101047.52;;;-2.61;86.22
59417;BME280;45222;52.458;20.914;2023-02-03T04:36:58;101049.89;;;-2.53;86.15
59417;BME280;45222;52.458;20.914;2023-02-03T04:40:42;101048.23;;;-2.48;86.06
59417;BME280;45222;52.458;20.914;2023-02-03T04:44:27;101048.62;;;-2.46;85.73
59417;BME280;45222;52.458;20.914;2023-02-03T04:48:11;101040.44;;;-2.46;85.48
59417;BME280;45222;52.458;20.914;2023-02-03T04:51:55;101039.31;;;-2.50;85.19
59417;BME280;45222;52.458;20.914;2023-02-03T04:55:39;101038.34;;;-2.57;84.95
59417;BME280;45222;52.458;20.914;2023-02-03T04:59:23;101033.38;;;-2.63;85.09
59417;BME280;45222;52.458;20.914;2023-02-03T05:03:07;101030.10;;;-2.72;84.66
59417;BME280;45222;52.458;20.914;2023-02-03T05:06:51;101032.52;;;-2.82;84.91
59417;BME280;45222;52.458;20.914;2023-02-03T05:10:35;101030.63;;;-2.92;84.83
59417;BME280;45222;52.458;20.914;2023-02-03T05:14:20;101032.23;;;-3.00;85.13
59417;BME280;45222;52.458;20.914;2023-02-03T05:18:04;101031.60;;;-3.06;85.30
59417;BME280;45222;52.458;20.914;2023-02-03T05:21:48;101022.64;;;-3.11;85.38
59417;BME280;45222;52.458;20.914;2023-02-03T05:25:33;101021.19;;;-3.14;85.35
59417;BME280;45222;52.458;20.914;2023-02-03T05:29:17;101018.69;;;-3.18;85.49
59417;BME280;45222;52.458;20.914;2023-02-03T05:33:01;101015.14;;;-3.21;85.61
59417;BME280;45222;52.458;20.914;2023-02-03T05:36:45;101002.02;;;-3.25;85.64
59417;BME280;45222;52.458;20.914;2023-02-03T05:40:29;101004.05;;;-3.28;85.62
59417;BME280;45222;52.458;20.914;2023-02-03T05:44:31;100999.48;;;-3.31;85.79
59417;BME280;45222;52.458;20.914;2023-02-03T05:48:15;100994.88;;;-3.36;85.91
59417;BME280;45222;52.458;20.914;2023-02-03T05:51:59;100996.70;;;-3.41;85.99
59417;BME280;45222;52.458;20.914;2023-02-03T05:55:43;100991.59;;;-3.44;86.15
59417;BME280;45222;52.458;20.914;2023-02-03T05:59:27;100993.79;;;-3.48;86.02
59417;BME280;45222;52.458;20.914;2023-02-03T06:03:11;100994.73;;;-3.53;86.24
59417;BME280;45222;52.458;20.914;2023-02-03T06:06:55;100996.91;;;-3.57;86.40
59417;BME280;45222;52.458;20.914;2023-02-03T06:10:39;100998.23;;;-3.60;86.68
59417;BME280;45222;52.458;20.914;2023-02-03T06:14:24;100993.67;;;-3.63;86.84
59417;BME280;45222;52.458;20.914;2023-02-03T06:18:08;100992.24;;;-3.65;86.80
59417;BME280;45222;52.458;20.914;2023-02-03T06:21:52;100987.20;;;-3.65;87.01
59417;BME280;45222;52.458;20.914;2023-02-03T06:25:36;100980.53;;;-3.59;87.10
59417;BME280;45222;52.458;20.914;2023-02-03T06:29:20;100977.09;;;-3.48;86.98
59417;BME280;45222;52.458;20.914;2023-02-03T06:33:04;100967.08;;;-3.34;87.25
59417;BME280;45222;52.458;20.914;2023-02-03T06:36:48;100957.48;;;-3.16;87.12
59417;BME280;45222;52.458;20.914;2023-02-03T06:40:32;100945.57;;;-3.00;87.14
59417;BME280;45222;52.458;20.914;2023-02-03T06:44:16;100942.98;;;-2.87;87.00
59417;BME280;45222;52.458;20.914;2023-02-03T06:48:00;100936.23;;;-2.74;87.03
59417;BME280;45222;52.458;20.914;2023-02-03T06:51:45;100930.40;;;-2.67;86.39
59417;BME280;45222;52.458;20.914;2023-02-03T06:55:29;100922.77;;;-2.64;86.30
59417;BME280;45222;52.458;20.914;2023-02-03T06:59:13;100914.80;;;-2.63;86.24
59417;BME280;45222;52.458;20.914;2023-02-03T07:03:03;100911.69;;;-2.61;86.25
59417;BME280;45222;52.458;20.914;2023-02-03T07:06:47;100903.88;;;-2.59;86.29
59417;BME280;45222;52.458;20.914;2023-02-03T07:10:31;100900.41;;;-2.58;86.08
59417;BME280;45222;52.458;20.914;2023-02-03T07:14:15;100884.23;;;-2.56;86.22
59417;BME280;45222;52.458;20.914;2023-02-03T07:17:59;100876.27;;;-2.54;86.23
59417;BME280;45222;52.458;20.914;2023-02-03T07:21:43;100870.23;;;-2.49;86.37
59417;BME280;45222;52.458;20.914;2023-02-03T07:25:27;100868.21;;;-2.43;86.39
59417;BME280;45222;52.458;20.914;2023-02-03T07:29:11;100861.15;;;-2.37;86.63
59417;BME280;45222;52.458;20.914;2023-02-03T07:32:55;100853.73;;;-2.31;86.81
59417;BME280;45222;52.458;20.914;2023-02-03T07:36:40;100855.01;;;-2.25;86.58
59417;BME280;45222;52.458;20.914;2023-02-03T07:40:24;100850.26;;;-2.15;86.73
59417;BME280;45222;52.458;20.914;2023-02-03T07:44:08;100843.98;;;-2.00;86.71
59417;BME280;45222;52.458;20.914;2023-02-03T07:47:52;100839.95;;;-1.83;86.70
59417;BME280;45222;52.458;20.914;2023-02-03T07:51:36;100834.37;;;-1.66;86.66
59417;BME280;45222;52.458;20.914;2023-02-03T07:55:20;100826.66;;;-1.47;86.60
59417;BME280;45222;52.458;20.914;2023-02-03T07:59:05;100823.13;;;-1.33;86.75
59417;BME280;45222;52.458;20.914;2023-02-03T08:02:49;100822.17;;;-1.19;86.64
59417;BME280;45222;52.458;20.914;2023-02-03T08:06:33;100813.15;;;-1.10;86.41
59417;BME280;45222;52.458;20.914;2023-02-03T08:10:17;100809.38;;;-1.01;86.29
59417;BME280;45222;52.458;20.914;2023-02-03T08:14:02;100808.88;;;-0.96;86.05
59417;BME280;45222;52.458;20.914;2023-02-03T08:17:51;100806.30;;;-0.89;85.87
59417;BME280;45222;52.458;20.914;2023-02-03T08:21:40;100799.88;;;-0.83;85.76
59417;BME280;45222;52.458;20.914;2023-02-03T08:25:24;100788.73;;;-0.73;85.88
59417;BME280;45222;52.458;20.914;2023-02-03T08:29:08;100788.09;;;-0.63;85.56
59417;BME280;45222;52.458;20.914;2023-02-03T08:32:53;100779.91;;;-0.57;85.03
59417;BME280;45222;52.458;20.914;2023-02-03T08:36:37;100772.23;;;-0.50;85.01
59417;BME280;45222;52.458;20.914;2023-02-03T08:40:22;100763.72;;;-0.37;85.17
59417;BME280;45222;52.458;20.914;2023-02-03T08:44:06;100756.95;;;-0.22;85.09
59417;BME280;45222;52.458;20.914;2023-02-03T08:47:50;100752.58;;;-0.09;84.83
59417;BME280;45222;52.458;20.914;2023-02-03T08:51:34;100740.02;;;0.02;84.37
59417;BME280;45222;52.458;20.914;2023-02-03T08:55:18;100732.31;;;0.09;84.00
59417;BME280;45222;52.458;20.914;2023-02-03T08:59:03;100725.33;;;0.14;83.47
59417;BME280;45222;52.458;20.914;2023-02-03T09:02:47;100716.23;;;0.18;83.35
59417;BME280;45222;52.458;20.914;2023-02-03T09:06:31;100709.06;;;0.26;83.11
59417;BME280;45222;52.458;20.914;2023-02-03T09:10:15;100699.77;;;0.34;82.98
59417;BME280;45222;52.458;20.914;2023-02-03T09:13:59;100690.67;;;0.43;83.13
59417;BME280;45222;52.458;20.914;2023-02-03T09:17:43;100686.80;;;0.52;83.29
59417;BME280;45222;52.458;20.914;2023-02-03T09:21:27;100682.58;;;0.62;82.36
59417;BME280;45222;52.458;20.914;2023-02-03T09:25:11;100672.05;;;0.71;81.58
59417;BME280;45222;52.458;20.914;2023-02-03T09:28:56;100667.11;;;0.82;81.91
59417;BME280;45222;52.458;20.914;2023-02-03T09:32:40;100660.76;;;0.94;81.12
59417;BME280;45222;52.458;20.914;2023-02-03T09:36:24;100653.52;;;1.05;81.32
59417;BME280;45222;52.458;20.914;2023-02-03T09:40:10;100641.37;;;1.19;80.80
59417;BME280;45222;52.458;20.914;2023-02-03T09:43:59;100623.83;;;1.24;80.00
59417;BME280;45222;52.458;20.914;2023-02-03T09:47:47;100609.77;;;1.30;79.83
59417;BME280;45222;52.458;20.914;2023-02-03T09:51:38;100586.27;;;1.34;78.21
59417;BME280;45222;52.458;20.914;2023-02-03T09:55:25;100577.64;;;1.38;80.06
59417;BME280;45222;52.458;20.914;2023-02-03T09:59:11;100574.62;;;1.44;79.81
59417;BME280;45222;52.458;20.914;2023-02-03T10:02:55;100568.59;;;1.54;79.78
59417;BME280;45222;52.458;20.914;2023-02-03T10:06:43;100561.67;;;1.60;78.21
59417;BME280;45222;52.458;20.914;2023-02-03T10:10:31;100552.58;;;1.60;77.99
59417;BME280;45222;52.458;20.914;2023-02-03T10:14:22;100544.15;;;1.64;79.04
59417;BME280;45222;52.458;20.914;2023-02-03T10:18:11;100536.91;;;1.67;78.28
59417;BME280;45222;52.458;20.914;2023-02-03T10:21:57;100524.17;;;1.61;76.66
59417;BME280;45222;52.458;20.914;2023-02-03T10:25:52;100516.19;;;1.53;75.89
59417;BME280;45222;52.458;20.914;2023-02-03T10:29:42;100501.10;;;1.55;77.07
59417;BME280;45222;52.458;20.914;2023-02-03T10:33:26;100489.16;;;1.57;76.77
59417;BME280;45222;52.458;20.914;2023-02-03T10:37:12;100483.70;;;1.59;75.27
59417;BME280;45222;52.458;20.914;2023-02-03T10:41:00;100472.45;;;1.62;75.31
59417;BME280;45222;52.458;20.914;2023-02-03T10:44:45;100461.48;;;1.73;76.30
59417;BME280;45222;52.458;20.914;2023-02-03T10:48:31;100446.63;;;1.83;75.90
59417;BME280;45222;52.458;20.914;2023-02-03T10:52:24;100436.73;;;1.89;76.89
59417;BME280;45222;52.458;20.914;2023-02-03T10:56:09;100420.19;;;1.95;76.61
59417;BME280;45222;52.458;20.914;2023-02-03T11:00:02;100404.64;;;2.04;76.40
59417;BME280;45222;52.458;20.914;2023-02-03T11:03:53;100390.11;;;2.03;75.99
59417;BME280;45222;52.458;20.914;2023-02-03T11:07:38;100376.65;;;1.98;76.36
59417;BME280;45222;52.458;20.914;2023-02-03T11:11:23;100367.05;;;1.95;76.38
59417;BME280;45222;52.458;20.914;2023-02-03T11:15:13;100350.45;;;1.90;75.77
59417;BME280;45222;52.458;20.914;2023-02-03T11:18:57;100337.89;;;1.85;76.11
59417;BME280;45222;52.458;20.914;2023-02-03T11:22:42;100324.50;;;1.77;75.48
59417;BME280;45222;52.458;20.914;2023-02-03T11:26:27;100309.12;;;1.73;76.21
59417;BME280;45222;52.458;20.914;2023-02-03T11:30:15;100288.58;;;1.75;75.33
59417;BME280;45222;52.458;20.914;2023-02-03T11:34:00;100277.48;;;1.78;76.10
59417;BME280;45222;52.458;20.914;2023-02-03T11:37:45;100264.28;;;1.81;75.76
59417;BME280;45222;52.458;20.914;2023-02-03T11:41:30;100259.17;;;1.84;75.98
59417;BME280;45222;52.458;20.914;2023-02-03T11:45:23;100251.36;;;1.78;74.89
59417;BME280;45222;52.458;20.914;2023-02-03T11:49:10;100238.51;;;1.69;74.86
59417;BME280;45222;52.458;20.914;2023-02-03T11:53:08;100231.58;;;1.64;75.00
59417;BME280;45222;52.458;20.914;2023-02-03T11:57:05;100220.98;;;1.57;74.71
59417;BME280;45222;52.458;20.914;2023-02-03T12:00:53;100214.61;;;1.49;75.08
59417;BME280;45222;52.458;20.914;2023-02-03T12:04:43;100204.08;;;1.37;74.56
59417;BME280;45222;52.458;20.914;2023-02-03T12:08:38;100197.91;;;1.26;74.28
59417;BME280;45222;52.458;20.914;2023-02-03T12:12:29;100184.84;;;1.21;75.17
59417;BME280;45222;52.458;20.914;2023-02-03T12:16:19;100178.23;;;1.17;74.91
59417;BME280;45222;52.458;20.914;2023-02-03T12:20:15;100170.55;;;1.16;75.18
59417;BME280;45222;52.458;20.914;2023-02-03T12:24:03;100159.36;;;1.14;74.88
59417;BME280;45222;52.458;20.914;2023-02-03T12:27:52;100150.46;;;1.12;75.16
59417;BME280;45222;52.458;20.914;2023-02-03T12:31:39;100143.14;;;1.09;74.74
59417;BME280;45222;52.458;20.914;2023-02-03T12:35:28;100133.22;;;1.04;74.23
59417;BME280;45222;52.458;20.914;2023-02-03T12:39:16;100124.69;;;1.00;74.60
59417;BME280;45222;52.458;20.914;2023-02-03T12:43:07;100113.00;;;0.98;73.98
59417;BME280;45222;52.458;20.914;2023-02-03T12:46:56;100100.76;;;0.96;74.29
59417;BME280;45222;52.458;20.914;2023-02-03T12:50:44;100091.61;;;0.99;74.46
59417;BME280;45222;52.458;20.914;2023-02-03T12:54:33;100081.98;;;0.99;74.28
59417;BME280;45222;52.458;20.914;2023-02-03T12:58:22;100065.17;;;0.99;74.53
59417;BME280;45222;52.458;20.914;2023-02-03T13:02:10;100051.91;;;0.95;74.61
59417;BME280;45222;52.458;20.914;2023-02-03T13:06:03;100042.92;;;0.88;74.73
59417;BME280;45222;52.458;20.914;2023-02-03T13:09:51;100030.15;;;0.74;74.54
59417;BME280;45222;52.458;20.914;2023-02-03T13:13:39;100024.24;;;0.58;75.09
59417;BME280;45222;52.458;20.914;2023-02-03T13:17:25;100014.25;;;0.45;75.56
59417;BME280;45222;52.458;20.914;2023-02-03T13:21:11;100001.98;;;0.34;75.84
59417;BME280;45222;52.458;20.914;2023-02-03T13:24:55;99987.23;;;0.24;76.29
59417;BME280;45222;52.458;20.914;2023-02-03T13:28:46;99971.77;;;0.16;76.56
59417;BME280;45222;52.458;20.914;2023-02-03T13:32:40;99963.11;;;0.08;76.88
59417;BME280;45222;52.458;20.914;2023-02-03T13:36:35;99952.89;;;0.00;77.17
59417;BME280;45222;52.458;20.914;2023-02-03T13:40:26;99941.75;;;-0.03;77.53
59417;BME280;45222;52.458;20.914;2023-02-03T13:44:15;99927.95;;;-0.04;78.41
59417;BME280;45222;52.458;20.914;2023-02-03T13:48:06;99920.61;;;-0.05;78.71
59417;BME280;45222;52.458;20.914;2023-02-03T13:51:51;99911.02;;;-0.05;79.43
59417;BME280;45222;52.458;20.914;2023-02-03T13:55:36;99898.27;;;-0.08;79.57
59417;BME280;45222;52.458;20.914;2023-02-03T13:59:28;99891.52;;;-0.13;79.52
59417;BME280;45222;52.458;20.914;2023-02-03T14:03:15;99881.70;;;-0.25;79.73
59417;BME280;45222;52.458;20.914;2023-02-03T14:07:01;99870.14;;;-0.35;80.15
59417;BME280;45222;52.458;20.914;2023-02-03T14:10:45;99868.14;;;-0.44;80.44
59417;BME280;45222;52.458;20.914;2023-02-03T14:14:55;99866.92;;;-0.46;80.78
59417;BME280;45222;52.458;20.914;2023-02-03T14:18:46;99856.34;;;-0.51;81.76
59417;BME280;45222;52.458;20.914;2023-02-03T14:22:30;99848.41;;;-0.61;82.01
59417;BME280;45222;52.458;20.914;2023-02-03T14:26:17;99842.89;;;-0.68;82.42
59417;BME280;45222;52.458;20.914;2023-02-03T14:30:02;99837.75;;;-0.77;82.59
59417;BME280;45222;52.458;20.914;2023-02-03T14:34:03;99832.98;;;-0.87;82.69
59417;BME280;45222;52.458;20.914;2023-02-03T14:37:51;99820.84;;;-0.95;82.50
59417;BME280;45222;52.458;20.914;2023-02-03T14:41:39;99813.56;;;-1.00;82.85
59417;BME280;45222;52.458;20.914;2023-02-03T14:49:46;99812.05;;;-1.05;84.31
59417;BME280;45222;52.458;20.914;2023-02-03T14:53:46;99806.45;;;-1.05;84.19
59417;BME280;45222;52.458;20.914;2023-02-03T14:57:37;99797.05;;;-1.05;84.65
59417;BME280;45222;52.458;20.914;2023-02-03T15:01:24;99793.77;;;-1.11;84.94
59417;BME280;45222;52.458;20.914;2023-02-03T15:09:13;99783.69;;;-1.14;84.84
59417;BME280;45222;52.458;20.914;2023-02-03T15:13:03;99778.11;;;-1.15;85.57
59417;BME280;45222;52.458;20.914;2023-02-03T15:16:48;99775.13;;;-1.15;85.86
59417;BME280;45222;52.458;20.914;2023-02-03T15:20:34;99769.39;;;-1.15;85.85
59417;BME280;45222;52.458;20.914;2023-02-03T15:24:21;99770.77;;;-1.15;86.06
59417;BME280;45222;52.458;20.914;2023-02-03T15:28:09;99762.41;;;-1.16;85.62
59417;BME280;45222;52.458;20.914;2023-02-03T15:32:08;99758.80;;;-1.21;86.43
59417;BME280;45222;52.458;20.914;2023-02-03T15:35:55;99751.52;;;-1.25;86.72
59417;BME280;45222;52.458;20.914;2023-02-03T15:39:51;99744.73;;;-1.26;86.55
59417;BME280;45222;52.458;20.914;2023-02-03T15:43:37;99745.09;;;-1.29;87.19
59417;BME280;45222;52.458;20.914;2023-02-03T15:47:26;99737.96;;;-1.30;87.25
59417;BME280;45222;52.458;20.914;2023-02-03T15:51:13;99733.97;;;-1.32;87.40
59417;BME280;45222;52.458;20.914;2023-02-03T15:55:01;99727.21;;;-1.37;87.30
59417;BME280;45222;52.458;20.914;2023-02-03T15:58:48;99721.80;;;-1.37;87.33
59417;BME280;45222;52.458;20.914;2023-02-03T16:02:33;99717.63;;;-1.37;87.43
59417;BME280;45222;52.458;20.914;2023-02-03T16:06:21;99715.53;;;-1.37;87.43
59417;BME280;45222;52.458;20.914;2023-02-03T16:14:06;99697.70;;;-1.35;87.93
59417;BME280;45222;52.458;20.914;2023-02-03T16:17:54;99694.21;;;-1.33;88.13
59417;BME280;45222;52.458;20.914;2023-02-03T16:21:50;99691.45;;;-1.36;88.18
59417;BME280;45222;52.458;20.914;2023-02-03T16:25:35;99685.04;;;-1.40;88.06
59417;BME280;45222;52.458;20.914;2023-02-03T16:29:20;99678.60;;;-1.42;88.55
59417;BME280;45222;52.458;20.914;2023-02-03T16:33:22;99677.92;;;-1.44;89.10
59417;BME280;45222;52.458;20.914;2023-02-03T16:37:25;99675.80;;;-1.41;89.01
59417;BME280;45222;52.458;20.914;2023-02-03T16:41:28;99668.09;;;-1.36;88.64
59417;BME280;45222;52.458;20.914;2023-02-03T16:45:32;99662.14;;;-1.35;88.98
59417;BME280;45222;52.458;20.914;2023-02-03T16:49:34;99658.98;;;-1.35;88.76
59417;BME280;45222;52.458;20.914;2023-02-03T16:53:36;99655.69;;;-1.36;89.04
59417;BME280;45222;52.458;20.914;2023-02-03T16:57:20;99653.09;;;-1.38;89.08
59417;BME280;45222;52.458;20.914;2023-02-03T17:01:05;99650.80;;;-1.36;89.14
59417;BME280;45222;52.458;20.914;2023-02-03T17:04:50;99650.91;;;-1.30;89.02
59417;BME280;45222;52.458;20.914;2023-02-03T17:08:34;99655.57;;;-1.26;88.67
59417;BME280;45222;52.458;20.914;2023-02-03T17:12:19;99656.05;;;-1.22;88.78
59417;BME280;45222;52.458;20.914;2023-02-03T17:16:07;99660.16;;;-1.15;88.86
59417;BME280;45222;52.458;20.914;2023-02-03T17:19:51;99662.55;;;-1.10;88.79
59417;BME280;45222;52.458;20.914;2023-02-03T17:23:36;99661.15;;;-1.12;88.87
59417;BME280;45222;52.458;20.914;2023-02-03T17:27:20;99663.64;;;-1.15;88.98
59417;BME280;45222;52.458;20.914;2023-02-03T17:31:05;99672.54;;;-1.15;88.83
59417;BME280;45222;52.458;20.914;2023-02-03T17:34:50;99681.08;;;-1.14;88.95
59417;BME280;45222;52.458;20.914;2023-02-03T17:38:35;99685.23;;;-1.12;89.01
59417;BME280;45222;52.458;20.914;2023-02-03T17:42:20;99687.46;;;-1.09;88.99
59417;BME280;45222;52.458;20.914;2023-02-03T17:46:05;99685.90;;;-1.07;88.84
59417;BME280;45222;52.458;20.914;2023-02-03T17:49:49;99686.42;;;-1.09;88.60
59417;BME280;45222;52.458;20.914;2023-02-03T17:53:33;99690.49;;;-1.13;88.98
59417;BME280;45222;52.458;20.914;2023-02-03T17:57:19;99685.46;;;-1.16;88.91
59417;BME280;45222;52.458;20.914;2023-02-03T18:01:07;99682.55;;;-1.20;89.12
59417;BME280;45222;52.458;20.914;2023-02-03T18:04:51;99695.28;;;-1.21;89.03
59417;BME280;45222;52.458;20.914;2023-02-03T18:08:36;99706.25;;;-1.17;89.08
59417;BME280;45222;52.458;20.914;2023-02-03T18:12:20;99713.70;;;-1.13;89.34
59417;BME280;45222;52.458;20.914;2023-02-03T18:16:06;99716.80;;;-1.09;89.32
59417;BME280;45222;52.458;20.914;2023-02-03T18:19:51;99716.70;;;-1.01;89.14
59417;BME280;45222;52.458;20.914;2023-02-03T18:23:35;99720.13;;;-0.96;88.83
59417;BME280;45222;52.458;20.914;2023-02-03T18:27:20;99723.75;;;-0.93;88.79
59417;BME280;45222;52.458;20.914;2023-02-03T18:31:05;99731.05;;;-0.90;88.59
59417;BME280;45222;52.458;20.914;2023-02-03T18:34:50;99738.56;;;-0.89;88.50
59417;BME280;45222;52.458;20.914;2023-02-03T18:38:34;99732.50;;;-0.92;88.51
59417;BME280;45222;52.458;20.914;2023-02-03T18:42:19;99735.33;;;-0.97;88.53
59417;BME280;45222;52.458;20.914;2023-02-03T18:46:06;99736.56;;;-0.98;88.56
59417;BME280;45222;52.458;20.914;2023-02-03T18:49:51;99743.34;;;-0.95;88.69
59417;BME280;45222;52.458;20.914;2023-02-03T18:53:35;99748.17;;;-0.90;88.61
59417;BME280;45222;52.458;20.914;2023-02-03T18:57:20;99752.50;;;-0.87;88.37
59417;BME280;45222;52.458;20.914;2023-02-03T19:01:05;99750.55;;;-0.85;88.44
59417;BME280;45222;52.458;20.914;2023-02-03T19:04:49;99751.10;;;-0.87;88.39
59417;BME280;45222;52.458;20.914;2023-02-03T19:08:33;99761.96;;;-0.90;88.36
59417;BME280;45222;52.458;20.914;2023-02-03T19:12:17;99759.55;;;-0.94;88.29
59417;BME280;45222;52.458;20.914;2023-02-03T19:16:02;99750.88;;;-0.98;88.43
59417;BME280;45222;52.458;20.914;2023-02-03T19:19:46;99744.10;;;-1.00;88.38
59417;BME280;45222;52.458;20.914;2023-02-03T19:23:30;99739.02;;;-0.98;88.33
59417;BME280;45222;52.458;20.914;2023-02-03T19:27:15;99742.81;;;-0.95;88.53
59417;BME280;45222;52.458;20.914;2023-02-03T19:31:02;99751.15;;;-0.90;88.46
59417;BME280;45222;52.458;20.914;2023-02-03T19:34:47;99759.61;;;-0.84;88.49
59417;BME280;45222;52.458;20.914;2023-02-03T19:38:31;99767.39;;;-0.76;88.51
59417;BME280;45222;52.458;20.914;2023-02-03T19:42:15;99770.98;;;-0.69;88.34
59417;BME280;45222;52.458;20.914;2023-02-03T19:46:00;99769.58;;;-0.69;88.22
59417;BME280;45222;52.458;20.914;2023-02-03T19:49:44;99764.02;;;-0.72;88.15
59417;BME280;45222;52.458;20.914;2023-02-03T19:53:29;99778.39;;;-0.77;88.18